Terminal Aerodrome Forecast
Issued by NWS

Home | Current Version | Previous Version | Text Only | Print | Product List | Glossary On
Versions: 1 2 3 4 5 6 7 8 9 10 11 12 13 14 15 16
000
FTUS43 KIND 311700 RRA
TAFLAF
TAF
KLAF 311753Z 3118/0118 21008KT P6SM BKN090
     FM312100 23007KT P6SM SCT030 OVC080
     FM010000 22005KT 4SM -RASN SCT025 OVC050
     FM010400 16003KT 2SM -SN BR OVC020
     FM010800 10004KT 3/4SM -SN BR OVC008
     FM011300 09009KT 1/2SM SN FG OVC005=

USA.gov is the U.S. government's official web portal to all federal, state and local government web resources and services.